SCIE 170600Z 21007KT CAVOK 13/10 Q1019